Time;durP1;ratioP1;P1;durP2;ratioP2;P2;SDS_P1;SDS_P2;PMS_P1;PMS_P2;Temp;Humidity;BMP_temperature;BMP_pressure;BME280_temperature;BME280_humidity;BME280_pressure;Samples;Min_cycle;Max_cycle;Signal;HPM_P1;HPM_P2
2022/08/26 00:01:32;;;;;;;1.13;0.90;;;22.90;99.90;;;;;;5119250;28;20545;-71
2022/08/26 00:06:29;;;;;;;1.73;1.50;;;22.80;99.90;;;;;;5123297;22;20453;-71
2022/08/26 00:08:55;;;;;;;1.40;1.00;;;22.80;99.90;;;;;;5118581;28;20441;-71
2022/08/26 00:11:22;;;;;;;1.53;1.10;;;22.80;99.90;;;;;;5118208;28;21029;-71
2022/08/26 00:13:49;;;;;;;1.80;1.40;;;22.80;99.90;;;;;;5118783;28;20441;-71
2022/08/26 00:16:17;;;;;;;1.47;1.07;;;22.90;99.90;;;;;;5116616;28;20871;-71
2022/08/26 00:18:44;;;;;;;1.10;1.00;;;22.90;99.90;;;;;;5118740;28;20456;-71
2022/08/26 00:21:12;;;;;;;2.00;1.00;;;22.90;99.90;;;;;;5118120;28;20982;-72
2022/08/26 00:23:39;;;;;;;1.37;1.03;;;22.90;99.90;;;;;;5118697;28;20472;-71
2022/08/26 00:26:06;;;;;;;1.40;1.00;;;22.90;99.90;;;;;;5117821;28;20576;-71
2022/08/26 00:28:34;;;;;;;1.07;0.97;;;22.80;99.90;;;;;;5118460;28;20441;-71
2022/08/26 00:31:01;;;;;;;1.60;1.00;;;22.80;99.90;;;;;;5117877;28;20456;-71
2022/08/26 00:33:28;;;;;;;1.30;1.10;;;22.80;99.90;;;;;;5118325;28;20509;-72
2022/08/26 00:35:55;;;;;;;1.33;1.10;;;22.80;99.90;;;;;;5117440;28;20492;-72
2022/08/26 00:38:24;;;;;;;1.60;1.20;;;22.70;99.90;;;;;;5118019;28;20463;-72
2022/08/26 00:40:54;;;;;;;1.23;1.00;;;22.70;99.90;;;;;;5117474;28;20480;-72
2022/08/26 00:43:22;;;;;;;1.03;0.90;;;22.60;99.90;;;;;;5117542;28;20816;-71
2022/08/26 00:45:55;;;;;;;1.40;1.00;;;22.60;99.90;;;;;;5117554;28;20529;-71
2022/08/26 00:48:25;;;;;;;2.40;1.30;;;22.60;99.90;;;;;;5117940;28;20453;-71
2022/08/26 00:50:56;;;;;;;2.33;1.00;;;22.60;99.90;;;;;;5116605;28;20502;-71
2022/08/26 00:53:28;;;;;;;1.57;1.10;;;22.60;1.00;;;;;;5117297;28;20888;-72
2022/08/26 00:55:59;;;;;;;1.37;0.93;;;22.50;1.00;;;;;;5116714;28;20456;-71
2022/08/26 00:58:29;;;;;;;1.20;1.10;;;22.50;1.00;;;;;;5116430;28;20496;-72
2022/08/26 01:00:56;;;;;;;2.13;1.10;;;22.40;1.00;;;;;;5115979;28;20512;-71
2022/08/26 01:03:25;;;;;;;1.70;1.03;;;22.40;1.00;;;;;;5117463;28;20460;-71
2022/08/26 01:05:55;;;;;;;1.40;1.00;;;22.30;1.00;;;;;;5116006;28;20780;-72
2022/08/26 01:08:22;;;;;;;1.23;1.00;;;22.30;1.00;;;;;;5117630;28;20534;-72
2022/08/26 01:10:51;;;;;;;1.00;0.90;;;22.30;1.00;;;;;;5116930;28;20444;-71
2022/08/26 01:13:19;;;;;;;1.20;1.10;;;22.40;1.00;;;;;;5117789;28;20509;-71
2022/08/26 01:15:51;;;;;;;1.30;1.00;;;22.60;99.90;;;;;;5116205;28;20531;-71
2022/08/26 01:18:19;;;;;;;1.40;1.13;;;22.60;99.90;;;;;;5117739;28;20485;-72
2022/08/26 01:20:55;;;;;;;1.10;0.90;;;22.70;99.90;;;;;;5116357;28;20510;-71
2022/08/26 01:23:27;;;;;;;1.80;1.00;;;22.70;99.90;;;;;;5117377;28;20444;-71
2022/08/26 01:25:57;;;;;;;1.10;1.00;;;22.80;99.90;;;;;;5114813;28;20506;-72
2022/08/26 01:28:27;;;;;;;1.10;1.00;;;22.70;99.90;;;;;;5114889;28;20540;-71
2022/08/26 01:30:56;;;;;;;2.70;1.10;;;22.60;99.90;;;;;;5113135;28;20501;-71
2022/08/26 01:33:29;;;;;;;1.30;1.10;;;22.40;99.90;;;;;;5115927;28;20883;-72
2022/08/26 01:35:56;;;;;;;1.63;1.23;;;22.30;1.00;;;;;;5114433;28;20539;-72
2022/08/26 01:38:26;;;;;;;1.13;1.00;;;22.20;1.00;;;;;;5115869;28;20461;-71
2022/08/26 01:40:53;;;;;;;1.37;1.10;;;22.20;1.00;;;;;;5112615;28;21086;-71
2022/08/26 01:43:24;;;;;;;1.20;1.10;;;22.20;1.00;;;;;;5116951;28;20440;-71
2022/08/26 01:45:55;;;;;;;1.30;1.10;;;22.20;1.00;;;;;;5116310;28;20452;-72
2022/08/26 01:48:26;;;;;;;1.40;1.00;;;22.20;1.00;;;;;;5116992;28;20494;-71
2022/08/26 01:50:55;;;;;;;1.50;1.00;;;22.30;1.00;;;;;;5114456;28;20517;-71
2022/08/26 01:53:23;;;;;;;1.47;1.00;;;22.20;1.00;;;;;;5116879;28;20456;-71
2022/08/26 01:55:55;;;;;;;1.37;1.00;;;22.20;1.00;;;;;;5115435;28;20517;-71
2022/08/26 01:58:26;;;;;;;1.33;1.10;;;22.20;1.00;;;;;;5115928;28;20448;-72
2022/08/26 02:00:53;;;;;;;1.57;1.10;;;22.20;1.00;;;;;;5114755;28;20520;-72
2022/08/26 02:03:21;;;;;;;1.00;0.90;;;22.20;1.00;;;;;;5116457;28;20487;-71
2022/08/26 02:05:52;;;;;;;1.10;0.90;;;22.20;1.00;;;;;;5114609;28;20529;-72
2022/08/26 02:08:20;;;;;;;1.73;1.13;;;22.20;1.00;;;;;;5116140;28;20449;-72
2022/08/26 02:10:47;;;;;;;2.00;1.20;;;22.20;1.00;;;;;;5115027;28;20445;-72
2022/08/26 02:13:16;;;;;;;1.70;1.00;;;22.10;1.00;;;;;;5116382;28;20473;-72
2022/08/26 02:15:44;;;;;;;1.30;1.10;;;22.10;1.00;;;;;;5114346;28;20510;-71
2022/08/26 02:18:12;;;;;;;1.40;1.07;;;22.10;1.00;;;;;;5115829;28;20484;-73
2022/08/26 02:20:40;;;;;;;1.10;1.00;;;22.10;1.00;;;;;;5115803;28;21032;-71
2022/08/26 02:23:07;;;;;;;1.20;1.10;;;22.20;1.00;;;;;;5116445;28;20444;-72
2022/08/26 02:25:43;;;;;;;1.50;1.30;;;22.10;1.00;;;;;;5114361;28;20939;-70
2022/08/26 02:28:11;;;;;;;1.80;1.10;;;22.10;1.00;;;;;;5114863;28;20779;-72
2022/08/26 02:30:41;;;;;;;1.83;1.03;;;21.90;1.00;;;;;;5114376;28;20947;-72
2022/08/26 02:33:08;;;;;;;1.20;1.10;;;21.80;1.00;;;;;;5116010;28;20445;-71
2022/08/26 02:35:36;;;;;;;1.40;1.10;;;21.60;99.90;;;;;;5114531;28;20551;-71
2022/08/26 02:38:04;;;;;;;1.37;1.20;;;21.60;99.90;;;;;;5116420;28;20452;-71
2022/08/26 02:40:34;;;;;;;1.13;1.00;;;21.60;99.90;;;;;;5117776;28;21008;-72
2022/08/26 02:43:01;;;;;;;1.23;1.00;;;21.70;99.90;;;;;;5120789;28;20476;-71
2022/08/26 02:45:28;;;;;;;2.43;1.03;;;21.70;98.90;;;;;;5118960;28;20457;-73
2022/08/26 02:47:57;;;;;;;1.50;1.00;;;21.80;1.00;;;;;;5120574;28;20734;-71
2022/08/26 02:50:25;;;;;;;1.10;0.90;;;21.80;1.00;;;;;;5118969;28;20491;-71
2022/08/26 02:52:52;;;;;;;2.10;1.30;;;21.80;1.00;;;;;;5120517;28;20531;-71
2022/08/26 02:55:20;;;;;;;1.57;1.23;;;21.80;1.00;;;;;;5118652;28;20488;-72
2022/08/26 02:57:47;;;;;;;2.43;1.10;;;21.80;1.00;;;;;;5120209;28;20505;-72
2022/08/26 03:00:15;;;;;;;1.53;1.07;;;21.80;1.00;;;;;;5118773;28;20457;-72
2022/08/26 03:02:42;;;;;;;1.40;1.10;;;21.80;1.00;;;;;;5120299;28;20899;-72
2022/08/26 03:05:12;;;;;;;1.33;1.03;;;21.80;1.00;;;;;;5117832;28;20476;-71
2022/08/26 03:07:39;;;;;;;1.30;1.10;;;21.70;1.00;;;;;;5119852;28;20444;-71
2022/08/26 03:10:07;;;;;;;1.07;0.97;;;21.80;1.00;;;;;;5118497;28;20517;-71
2022/08/26 03:12:34;;;;;;;1.27;1.00;;;21.70;1.00;;;;;;5120000;28;20469;-72
2022/08/26 03:15:02;;;;;;;1.30;1.20;;;21.70;1.00;;;;;;5118041;28;20520;-71
2022/08/26 03:17:32;;;;;;;1.13;1.00;;;21.60;1.00;;;;;;5120113;28;20480;-71
2022/08/26 03:19:59;;;;;;;1.20;1.00;;;21.50;99.90;;;;;;5117845;28;20488;-71
2022/08/26 03:22:27;;;;;;;1.43;1.10;;;21.50;99.90;;;;;;5119483;28;20567;-73
2022/08/26 03:24:54;;;;;;;1.30;1.10;;;21.40;99.90;;;;;;5120681;28;20957;-72
2022/08/26 03:27:21;;;;;;;1.30;1.10;;;21.60;99.90;;;;;;5119841;28;20517;-72
2022/08/26 03:32:33;;;;;;;1.30;1.10;;;21.60;86.30;;;;;;5119502;28;20842;-71
2022/08/26 03:35:00;;;;;;;1.40;1.20;;;21.60;22.30;;;;;;5118213;28;20774;-72
2022/08/26 03:37:28;;;;;;;2.27;1.13;;;21.50;99.90;;;;;;5119399;28;20898;-71
2022/08/26 03:39:55;;;;;;;1.40;1.10;;;21.40;99.90;;;;;;5117738;28;20879;-72
2022/08/26 03:42:22;;;;;;;1.70;1.40;;;21.40;99.90;;;;;;5118856;28;20519;-72
2022/08/26 03:44:50;;;;;;;2.30;1.50;;;21.40;99.90;;;;;;5117218;28;20509;-71
2022/08/26 03:47:17;;;;;;;1.20;1.10;;;21.40;99.90;;;;;;5119177;28;20791;-72
2022/08/26 03:49:44;;;;;;;1.77;1.30;;;21.50;99.90;;;;;;5117611;28;20510;-71
2022/08/26 03:52:11;;;;;;;1.10;1.00;;;21.50;99.90;;;;;;5117115;28;20530;-71
2022/08/26 03:54:41;;;;;;;1.30;0.97;;;21.50;99.90;;;;;;5115923;28;20463;-72
2022/08/26 03:57:08;;;;;;;2.30;1.20;;;21.60;99.90;;;;;;5117710;28;20872;-72
2022/08/26 03:59:35;;;;;;;1.30;1.10;;;21.60;1.00;;;;;;5115956;28;20555;-72
2022/08/26 04:02:02;;;;;;;1.80;1.20;;;21.50;99.90;;;;;;5117974;28;20480;-72
2022/08/26 04:04:29;;;;;;;1.87;1.30;;;21.40;99.90;;;;;;5115970;28;20545;-73
2022/08/26 04:06:58;;;;;;;1.27;1.13;;;21.40;99.90;;;;;;5118658;28;20485;-72
2022/08/26 04:09:26;;;;;;;1.73;1.17;;;21.40;99.90;;;;;;5117090;28;20455;-72
2022/08/26 04:11:56;;;;;;;1.50;0.90;;;21.30;99.90;;;;;;5118487;28;20452;-72
2022/08/26 04:14:25;;;;;;;1.50;1.10;;;21.30;99.90;;;;;;5116229;28;20449;-71
2022/08/26 04:16:54;;;;;;;1.10;1.00;;;21.30;99.90;;;;;;5118735;28;20445;-71
2022/08/26 04:19:22;;;;;;;1.40;1.00;;;21.30;99.90;;;;;;5116853;28;21393;-71
2022/08/26 04:21:52;;;;;;;1.33;1.10;;;21.30;99.90;;;;;;5118779;28;20516;-71
2022/08/26 04:24:22;;;;;;;1.20;1.03;;;21.40;99.90;;;;;;5116102;28;20750;-72
2022/08/26 04:26:49;;;;;;;1.20;1.00;;;21.40;96.80;;;;;;5118736;28;20445;-71
2022/08/26 04:29:22;;;;;;;1.23;1.07;;;21.40;99.90;;;;;;5116745;28;20798;-71
2022/08/26 04:31:50;;;;;;;1.60;1.23;;;21.40;99.90;;;;;;5118496;28;20449;-72
2022/08/26 04:34:18;;;;;;;1.30;1.00;;;21.40;99.90;;;;;;5118445;28;20803;-73
2022/08/26 04:36:45;;;;;;;1.43;1.20;;;21.40;99.90;;;;;;5116066;28;20452;-72
2022/08/26 04:39:15;;;;;;;1.70;1.30;;;21.30;99.90;;;;;;5118253;28;20452;-72
2022/08/26 04:41:43;;;;;;;1.50;1.10;;;21.40;99.90;;;;;;5116444;28;20792;-72
2022/08/26 04:44:10;;;;;;;1.30;1.10;;;21.40;99.90;;;;;;5117868;28;20464;-72
2022/08/26 04:46:39;;;;;;;1.30;1.00;;;21.40;99.90;;;;;;5115825;28;20445;-72
2022/08/26 04:49:07;;;;;;;2.23;1.27;;;21.40;99.90;;;;;;5117652;28;20805;-72
2022/08/26 04:51:36;;;;;;;1.20;1.00;;;21.40;99.90;;;;;;5115665;28;20915;-71
2022/08/26 04:54:05;;;;;;;1.50;1.10;;;21.40;99.90;;;;;;5118031;28;20724;-72
2022/08/26 04:56:35;;;;;;;1.43;1.33;;;21.40;99.90;;;;;;5115762;28;20988;-72
2022/08/26 04:59:04;;;;;;;1.40;1.20;;;21.50;99.90;;;;;;5115309;28;20476;-71
2022/08/26 05:01:31;;;;;;;1.37;1.10;;;21.50;1.00;;;;;;5111791;28;21012;-72
2022/08/26 05:04:01;;;;;;;2.50;1.30;;;21.50;1.00;;;;;;5114296;28;20645;-72
2022/08/26 05:06:28;;;;;;;1.50;1.20;;;21.50;6.50;;;;;;5113220;28;20516;-71
2022/08/26 05:08:56;;;;;;;1.40;1.20;;;21.40;36.70;;;;;;5112249;28;20457;-72
2022/08/26 05:11:23;;;;;;;3.10;1.50;;;21.50;99.90;;;;;;5114929;28;20478;-71
2022/08/26 05:13:50;;;;;;;2.37;1.20;;;21.50;1.00;;;;;;5096328;28;20509;-72
2022/08/26 05:16:18;;;;;;;1.37;1.10;;;21.50;21.60;;;;;;5116231;28;20532;-72
2022/08/26 05:18:46;;;;;;;1.60;1.40;;;21.50;30.30;;;;;;5114852;28;20543;-72
2022/08/26 05:21:19;;;;;;;1.40;1.13;;;21.60;1.00;;;;;;5116436;28;20529;-71
2022/08/26 05:23:46;;;;;;;4.93;1.30;;;21.60;1.00;;;;;;5113429;28;20480;-71
2022/08/26 05:26:15;;;;;;;3.30;1.30;;;21.60;1.00;;;;;;5115679;28;20445;-72
2022/08/26 05:28:42;;;;;;;1.47;1.20;;;21.60;1.00;;;;;;5114328;28;20456;-72
2022/08/26 05:31:13;;;;;;;1.43;1.10;;;21.60;1.00;;;;;;5115887;28;20468;-72
2022/08/26 05:33:40;;;;;;;1.50;1.10;;;21.70;1.00;;;;;;5113472;28;20484;-72
2022/08/26 05:36:09;;;;;;;3.10;1.10;;;21.70;1.00;;;;;;5114642;28;20444;-72
2022/08/26 05:38:37;;;;;;;1.80;1.13;;;21.80;1.00;;;;;;5113369;28;20464;-71
2022/08/26 05:41:12;;;;;;;1.30;1.00;;;21.80;1.00;;;;;;5114628;28;20721;-72
2022/08/26 05:43:39;;;;;;;2.17;1.40;;;21.90;1.00;;;;;;5112004;28;20887;-73
2022/08/26 05:46:07;;;;;;;1.30;1.20;;;21.90;1.00;;;;;;5114881;28;20486;-72
2022/08/26 05:48:34;;;;;;;1.20;1.00;;;21.70;1.00;;;;;;5112848;28;20509;-71
2022/08/26 05:51:03;;;;;;;1.70;1.27;;;21.70;1.00;;;;;;5114273;28;20445;-72
2022/08/26 05:53:31;;;;;;;1.60;1.50;;;21.70;1.00;;;;;;5110198;28;20460;-71
2022/08/26 05:56:00;;;;;;;1.73;1.20;;;21.70;1.00;;;;;;5112388;28;20443;-71
2022/08/26 05:58:27;;;;;;;1.80;1.30;;;21.60;1.00;;;;;;5111333;28;20492;-72
2022/08/26 06:01:00;;;;;;;1.70;1.40;;;21.60;1.00;;;;;;5115110;28;20552;-73
2022/08/26 06:03:27;;;;;;;5.60;4.43;;;21.60;1.00;;;;;;5114698;28;20488;-72
2022/08/26 06:05:54;;;;;;;6.03;5.53;;;21.60;1.00;;;;;;5113013;27;20888;-71
2022/08/26 06:08:21;;;;;;;6.43;2.77;;;21.60;1.40;;;;;;5118747;27;20928;-73
2022/08/26 06:10:51;;;;;;;2.23;1.53;;;21.60;35.80;;;;;;5122287;27;20548;-72
2022/08/26 06:13:22;;;;;;;1.30;1.17;;;21.60;1.00;;;;;;5117455;27;20425;-72
2022/08/26 06:15:50;;;;;;;3.10;1.83;;;21.50;9.60;;;;;;5131185;27;20448;-73
2022/08/26 06:18:20;;;;;;;3.20;1.33;;;21.40;22.00;;;;;;5115632;28;20440;-73
2022/08/26 06:20:48;;;;;;;1.50;1.40;;;21.40;99.90;;;;;;5114363;28;20509;-72
2022/08/26 06:26:03;;;;;;;2.47;1.50;;;21.40;99.90;;;;;;5111657;28;20436;-74
2022/08/26 06:28:32;;;;;;;1.33;1.20;;;21.40;99.90;;;;;;5114152;28;20556;-73
2022/08/26 06:31:01;;;;;;;1.80;1.20;;;21.30;99.90;;;;;;5112245;28;20461;-73
2022/08/26 06:33:28;;;;;;;1.97;1.70;;;21.30;99.90;;;;;;5113939;28;20449;-73
2022/08/26 06:35:55;;;;;;;2.07;1.97;;;21.30;1.00;;;;;;5111225;28;20460;-73
2022/08/26 06:38:22;;;;;;;1.40;1.20;;;21.20;99.90;;;;;;5114693;28;20453;-73
2022/08/26 06:40:51;;;;;;;2.10;1.10;;;21.20;1.00;;;;;;5113908;28;20539;-73
2022/08/26 06:43:22;;;;;;;4.80;1.30;;;21.10;1.00;;;;;;5115582;28;20487;-73
2022/08/26 06:45:51;;;;;;;2.80;1.70;;;21.10;1.00;;;;;;5113276;28;20461;-74
2022/08/26 06:48:20;;;;;;;3.70;1.50;;;21.10;24.60;;;;;;5115604;28;20718;-73
2022/08/26 06:50:47;;;;;;;2.10;1.23;;;21.10;99.90;;;;;;5114380;28;20497;-72
2022/08/26 06:53:15;;;;;;;2.43;1.97;;;21.40;1.00;;;;;;5115933;28;20872;-73
2022/08/26 06:55:46;;;;;;;6.27;1.40;;;21.50;99.90;;;;;;5115162;28;20444;-73
2022/08/26 06:58:13;;;;;;;1.47;1.20;;;21.80;99.90;;;;;;5115544;28;20501;-73
2022/08/26 07:00:40;;;;;;;2.13;1.50;;;21.90;99.90;;;;;;5112872;28;20460;-73
2022/08/26 07:03:09;;;;;;;2.77;1.40;;;22.00;6.90;;;;;;5110181;28;20509;-73
2022/08/26 07:05:36;;;;;;;1.80;1.30;;;22.00;1.00;;;;;;5092704;28;20481;-73
2022/08/26 07:08:04;;;;;;;3.17;1.47;;;22.10;1.00;;;;;;5095499;28;20495;-74
2022/08/26 07:10:31;;;;;;;8.37;1.37;;;22.20;1.00;;;;;;5091833;28;20464;-73
2022/08/26 07:12:58;;;;;;;1.77;1.30;;;22.30;1.00;;;;;;5106835;28;20498;-72
2022/08/26 07:15:25;;;;;;;1.50;1.40;;;22.50;1.00;;;;;;5101094;28;20556;-72
2022/08/26 07:17:52;;;;;;;2.20;1.60;;;22.70;99.90;;;;;;5100843;28;21164;-72
2022/08/26 07:20:23;;;;;;;3.03;1.77;;;22.80;99.90;;;;;;5110806;28;20446;-72
2022/08/26 07:22:50;;;;;;;2.17;1.97;;;22.70;99.90;;;;;;5094759;28;20979;-72
2022/08/26 07:25:17;;;;;;;3.17;2.03;;;22.60;99.90;;;;;;5110480;28;20449;-73
2022/08/26 07:27:45;;;;;;;5.27;1.60;;;22.50;99.90;;;;;;5105802;28;20831;-72
2022/08/26 07:30:13;;;;;;;3.23;1.60;;;22.60;1.00;;;;;;5115849;28;20445;-72
2022/08/26 07:32:40;;;;;;;3.00;1.43;;;22.70;99.90;;;;;;5116723;28;20441;-72
2022/08/26 07:35:08;;;;;;;3.17;1.50;;;22.70;99.90;;;;;;5101609;28;20449;-71
2022/08/26 07:37:36;;;;;;;1.50;1.10;;;22.60;99.90;;;;;;5097379;28;20502;-72
2022/08/26 07:40:04;;;;;;;2.47;1.60;;;22.70;99.90;;;;;;5094665;28;20519;-72
2022/08/26 07:42:31;;;;;;;3.53;1.23;;;22.80;99.90;;;;;;5097260;28;20485;-71
2022/08/26 07:44:58;;;;;;;2.30;1.60;;;23.10;99.90;;;;;;5109734;28;20442;-72
2022/08/26 07:47:25;;;;;;;1.50;1.40;;;23.20;99.90;;;;;;5095986;28;20461;-72
2022/08/26 07:49:52;;;;;;;2.33;1.40;;;23.30;99.90;;;;;;5098410;28;20507;-72
2022/08/26 07:52:19;;;;;;;2.00;1.40;;;23.40;99.90;;;;;;5109575;28;20524;-72
2022/08/26 07:54:47;;;;;;;1.70;1.30;;;23.40;99.90;;;;;;5116267;28;20437;-72
2022/08/26 07:57:14;;;;;;;1.73;1.37;;;23.30;99.90;;;;;;5116268;28;20457;-73
2022/08/26 07:59:41;;;;;;;1.90;1.37;;;23.40;99.90;;;;;;5118593;28;20531;-72
2022/08/26 08:02:08;;;;;;;2.70;1.37;;;23.40;99.90;;;;;;5116185;28;21102;-74
2022/08/26 08:04:35;;;;;;;2.60;1.77;;;23.50;99.90;;;;;;5109575;28;20499;-74
2022/08/26 08:07:02;;;;;;;2.70;1.60;;;23.40;99.90;;;;;;5111476;28;20487;-73
2022/08/26 08:09:29;;;;;;;3.40;1.50;;;23.50;99.90;;;;;;5104677;28;20913;-74
2022/08/26 08:11:58;;;;;;;2.27;1.20;;;23.60;99.90;;;;;;5096543;28;20450;-74
2022/08/26 08:14:25;;;;;;;1.77;1.43;;;23.80;62.70;;;;;;5096146;28;20906;-72
2022/08/26 08:16:51;;;;;;;2.20;1.47;;;23.90;39.10;;;;;;5094001;28;20859;-72
2022/08/26 08:19:18;;;;;;;2.90;1.50;;;24.00;16.30;;;;;;5105641;28;20452;-71
2022/08/26 08:21:45;;;;;;;2.10;2.00;;;24.00;4.50;;;;;;5098112;28;20530;-72
2022/08/26 08:24:12;;;;;;;2.20;1.60;;;23.90;2.30;;;;;;5095903;28;20484;-72
2022/08/26 08:26:40;;;;;;;2.90;1.77;;;23.90;1.00;;;;;;5098897;28;20454;-72
2022/08/26 08:29:09;;;;;;;3.90;2.10;;;23.90;1.00;;;;;;5096916;28;20733;-72
2022/08/26 08:31:36;;;;;;;2.13;1.50;;;23.80;6.50;;;;;;5111670;28;20456;-73
2022/08/26 08:34:03;;;;;;;2.53;1.50;;;23.90;14.80;;;;;;5116973;28;20521;-73
2022/08/26 08:36:30;;;;;;;2.30;1.40;;;23.90;14.60;;;;;;5103186;28;20885;-73
2022/08/26 08:38:57;;;;;;;1.93;1.57;;;24.00;12.20;;;;;;5097323;28;20457;-72
2022/08/26 08:41:44;;;;;;;3.60;1.80;;;24.20;1.00;;;;;;5097756;28;20556;-72
2022/08/26 08:44:18;;;;;;;2.03;1.83;;;24.30;1.00;;;;;;5099237;28;20492;-72
2022/08/26 08:46:48;;;;;;;3.87;1.37;;;24.60;1.00;;;;;;5095821;28;20548;-72
2022/08/26 08:49:16;;;;;;;1.50;1.23;;;24.80;1.00;;;;;;5109751;27;20826;-71
2022/08/26 08:51:48;;;;;;;1.60;1.33;;;24.90;1.00;;;;;;5103045;27;20548;-72
2022/08/26 08:54:15;;;;;;;3.47;1.40;;;25.10;1.00;;;;;;5108891;27;20739;-72
2022/08/26 08:56:46;;;;;;;4.67;1.80;;;25.30;1.00;;;;;;5117471;28;20460;-70
2022/08/26 08:59:18;;;;;;;1.30;1.07;;;25.60;1.00;;;;;;5118355;28;20437;-71
2022/08/26 09:01:59;;;;;;;1.43;1.20;;;25.80;1.00;;;;;;5106059;28;20450;-70
2022/08/26 09:04:54;;;;;;;1.77;1.30;;;26.10;1.00;;;;;;5097548;28;20500;-71
2022/08/26 09:07:25;;;;;;;2.23;1.20;;;26.20;1.00;;;;;;5095499;28;20486;-73
2022/08/26 09:09:57;;;;;;;1.87;1.30;;;26.40;1.00;;;;;;5097254;28;20497;-70
2022/08/26 09:12:27;;;;;;;1.60;1.30;;;26.50;1.00;;;;;;5104591;27;20833;-72
2022/08/26 09:15:01;;;;;;;3.33;1.20;;;26.60;1.00;;;;;;5096400;28;20478;-72
2022/08/26 09:17:40;;;;;;;1.60;1.30;;;26.50;1.00;;;;;;5099713;27;20449;-72
2022/08/26 09:20:16;;;;;;;2.17;1.40;;;26.40;1.00;;;;;;5112420;27;20836;-72
2022/08/26 09:22:43;;;;;;;1.97;1.30;;;26.40;1.00;;;;;;5096107;28;20920;-72
2022/08/26 09:25:12;;;;;;;3.60;1.63;;;26.50;1.00;;;;;;5092642;28;20554;-72
2022/08/26 09:27:43;;;;;;;1.40;1.13;;;26.70;1.00;;;;;;5095143;28;20445;-72
2022/08/26 09:30:14;;;;;;;2.90;1.30;;;26.90;1.00;;;;;;5093325;28;20500;-71
2022/08/26 09:32:43;;;;;;;1.50;1.30;;;27.10;1.00;;;;;;5095284;28;20481;-72
2022/08/26 09:35:25;;;;;;;1.60;1.30;;;27.20;1.00;;;;;;5095247;28;20453;-72
2022/08/26 09:37:53;;;;;;;1.50;1.20;;;27.30;1.00;;;;;;5096318;28;20510;-72
2022/08/26 09:40:27;;;;;;;1.90;1.50;;;27.40;1.00;;;;;;5094099;28;20445;-71
2022/08/26 09:43:14;;;;;;;2.20;1.20;;;27.40;1.00;;;;;;5095894;28;20760;-72
2022/08/26 09:45:45;;;;;;;1.20;1.10;;;27.50;1.00;;;;;;5097234;28;20438;-72
2022/08/26 09:48:24;;;;;;;1.33;1.03;;;27.70;1.00;;;;;;5103179;28;20476;-71
2022/08/26 09:50:54;;;;;;;1.30;1.10;;;27.70;1.00;;;;;;5100922;28;20460;-72
2022/08/26 09:53:24;;;;;;;3.20;1.37;;;27.80;1.00;;;;;;5100143;28;20459;-70
2022/08/26 09:56:09;;;;;;;3.17;1.30;;;27.90;1.00;;;;;;5101575;28;20509;-71
2022/08/26 09:58:39;;;;;;;2.60;1.20;;;27.90;1.00;;;;;;5099649;28;20459;-71
2022/08/26 10:01:14;;;;;;;1.33;1.20;;;27.90;1.00;;;;;;5099892;28;20967;-71
2022/08/26 10:03:43;;;;;;;1.63;1.00;;;27.90;1.00;;;;;;5101783;28;20482;-71
2022/08/26 10:06:22;;;;;;;1.40;1.30;;;27.80;1.00;;;;;;5098292;28;20944;-72
2022/08/26 10:08:52;;;;;;;1.40;1.30;;;28.10;1.00;;;;;;5096910;28;20529;-72
2022/08/26 10:11:27;;;;;;;3.20;1.27;;;28.40;1.00;;;;;;5110599;28;20476;-71
2022/08/26 10:13:57;;;;;;;3.30;1.20;;;28.70;1.00;;;;;;5113077;28;20480;-70
2022/08/26 10:16:32;;;;;;;1.67;1.30;;;29.00;1.00;;;;;;5109874;28;20514;-70
2022/08/26 10:19:04;;;;;;;3.37;1.57;;;29.30;1.00;;;;;;5101334;28;20459;-71
2022/08/26 10:21:36;;;;;;;2.37;1.17;;;29.50;1.00;;;;;;5093582;28;20442;-71
2022/08/26 10:24:07;;;;;;;6.37;2.80;;;29.50;1.00;;;;;;5112619;28;20485;-70
2022/08/26 10:26:41;;;;;;;3.60;1.40;;;29.80;1.00;;;;;;5094998;28;20476;-70
2022/08/26 10:29:13;;;;;;;2.10;1.20;;;30.00;1.00;;;;;;5095048;28;20553;-70
2022/08/26 10:31:46;;;;;;;2.23;2.13;;;29.80;1.00;;;;;;5094423;28;20903;-71
2022/08/26 10:34:16;;;;;;;2.73;1.40;;;29.40;1.00;;;;;;5098189;28;20437;-72
2022/08/26 10:36:55;;;;;;;3.57;1.90;;;29.10;1.00;;;;;;5095693;28;20851;-72
2022/08/26 10:39:27;;;;;;;1.60;1.10;;;29.00;1.00;;;;;;5094757;28;20523;-71
2022/08/26 10:41:58;;;;;;;2.70;1.77;;;29.20;1.00;;;;;;5112619;28;20510;-72
2022/08/26 10:44:26;;;;;;;1.83;1.60;;;29.30;1.00;;;;;;5093922;28;21040;-71
2022/08/26 10:47:01;;;;;;;2.03;1.93;;;29.00;1.00;;;;;;5091595;28;20464;-71
2022/08/26 10:49:28;;;;;;;3.43;1.50;;;28.80;1.00;;;;;;5094635;28;20509;-71
2022/08/26 10:52:03;;;;;;;2.90;1.20;;;28.70;1.00;;;;;;5098123;28;20466;-71
2022/08/26 10:54:38;;;;;;;2.33;1.17;;;28.90;1.00;;;;;;5093813;28;20466;-72
2022/08/26 10:57:15;;;;;;;2.10;1.20;;;29.40;1.00;;;;;;5096981;28;20537;-73
2022/08/26 10:59:59;;;;;;;1.50;1.00;;;30.00;1.00;;;;;;5096187;28;20422;-72
2022/08/26 11:02:35;;;;;;;2.43;1.10;;;30.60;1.00;;;;;;5100827;28;20445;-72
2022/08/26 11:05:06;;;;;;;3.63;1.40;;;30.80;1.00;;;;;;5096641;28;20936;-72
2022/08/26 11:07:39;;;;;;;3.90;1.20;;;31.00;1.00;;;;;;5113122;28;20492;-71
2022/08/26 11:10:26;;;;;;;2.77;1.60;;;31.00;1.00;;;;;;5115465;28;20495;-71
2022/08/26 11:12:56;;;;;;;1.77;1.20;;;31.10;1.00;;;;;;5118745;28;20446;-71
2022/08/26 11:16:07;;;;;;;5.23;1.40;;;31.30;1.00;;;;;;5110381;28;20988;-71
2022/08/26 11:18:45;;;;;;;1.60;1.27;;;31.20;1.00;;;;;;5117835;28;20452;-72
2022/08/26 11:21:50;;;;;;;1.30;1.20;;;31.20;1.00;;;;;;5096178;28;20448;-71
2022/08/26 11:25:09;;;;;;;1.37;1.13;;;31.30;1.00;;;;;;5116630;28;20574;-71
2022/08/26 11:27:55;;;;;;;1.93;1.30;;;31.60;1.00;;;;;;5114774;28;20543;-71
2022/08/26 11:30:48;;;;;;;3.03;1.30;;;32.00;1.00;;;;;;5118973;28;20488;-72
2022/08/26 11:33:57;;;;;;;3.80;1.40;;;32.40;1.00;;;;;;5106462;28;20540;-71
2022/08/26 11:37:00;;;;;;;3.13;1.80;;;31.60;1.00;;;;;;5096680;28;20556;-72
2022/08/26 11:39:35;;;;;;;2.33;1.30;;;31.20;1.00;;;;;;5016064;28;20444;-72
2022/08/26 11:42:16;;;;;;;2.73;1.40;;;31.00;1.00;;;;;;4997564;28;20561;-72
2022/08/26 11:44:44;;;;;;;2.03;1.83;;;30.90;1.00;;;;;;5064810;28;20496;-72
2022/08/26 11:47:14;;;;;;;1.40;1.20;;;30.80;1.00;;;;;;5096815;28;20453;-71
2022/08/26 11:49:41;;;;;;;2.60;1.63;;;30.70;1.00;;;;;;5097962;28;20473;-71
2022/08/26 11:52:13;;;;;;;3.30;3.00;;;30.50;1.00;;;;;;5097072;28;20460;-71
2022/08/26 11:54:40;;;;;;;1.60;1.47;;;30.60;1.00;;;;;;5098493;28;20442;-72
2022/08/26 11:57:12;;;;;;;2.47;1.70;;;31.10;1.00;;;;;;5095610;28;20507;-72
2022/08/26 11:59:42;;;;;;;2.43;1.50;;;31.80;1.00;;;;;;5098182;28;20452;-72
2022/08/26 12:02:15;;;;;;;3.83;1.40;;;31.80;1.00;;;;;;5102239;28;20465;-72
2022/08/26 12:04:47;;;;;;;1.93;1.40;;;31.90;1.00;;;;;;5111713;28;20489;-72
2022/08/26 12:07:16;;;;;;;5.27;1.23;;;31.90;1.00;;;;;;5111207;28;20465;-71
2022/08/26 12:09:53;;;;;;;2.90;1.63;;;31.90;1.00;;;;;;5110696;28;20461;-70
2022/08/26 12:12:25;;;;;;;2.80;1.23;;;32.20;1.00;;;;;;5095525;28;20464;-70
2022/08/26 12:15:22;;;;;;;3.77;1.30;;;32.60;1.00;;;;;;5100861;28;20496;-71
2022/08/26 12:17:50;;;;;;;2.47;1.20;;;32.50;1.00;;;;;;5112458;28;20472;-71
2022/08/26 12:20:22;;;;;;;2.53;1.40;;;32.50;1.00;;;;;;5107293;28;20467;-71
2022/08/26 12:22:51;;;;;;;2.10;1.27;;;32.40;1.00;;;;;;5097386;28;20438;-71
2022/08/26 12:25:23;;;;;;;2.40;1.27;;;32.60;1.00;;;;;;5099405;28;20480;-72
2022/08/26 12:27:50;;;;;;;1.53;1.13;;;32.30;1.00;;;;;;5098116;28;20446;-71
2022/08/26 12:30:21;;;;;;;2.30;1.20;;;32.10;1.00;;;;;;5095896;28;21109;-70
2022/08/26 12:33:04;;;;;;;2.43;1.30;;;32.00;1.00;;;;;;5115430;28;20464;-71
2022/08/26 12:35:33;;;;;;;2.40;1.60;;;31.80;1.00;;;;;;5114943;28;20465;-70
2022/08/26 12:38:03;;;;;;;1.93;1.70;;;31.30;1.00;;;;;;5117785;28;20532;-71
2022/08/26 12:40:39;;;;;;;1.93;1.40;;;31.10;1.00;;;;;;5110116;28;20935;-70
2022/08/26 12:43:08;;;;;;;9.40;1.70;;;31.10;1.00;;;;;;5095842;28;20512;-71
2022/08/26 12:45:37;;;;;;;1.63;1.40;;;31.30;1.00;;;;;;5102297;28;20508;-72
2022/08/26 12:48:08;;;;;;;4.60;1.83;;;31.40;1.00;;;;;;5115285;28;20513;-71
2022/08/26 12:50:38;;;;;;;4.20;1.30;;;31.60;1.00;;;;;;5104027;28;20523;-71
2022/08/26 12:53:20;;;;;;;3.20;1.70;;;32.10;1.00;;;;;;5096328;28;20466;-72
2022/08/26 12:55:49;;;;;;;3.80;1.80;;;32.50;1.00;;;;;;5096224;28;20917;-72
2022/08/26 12:58:30;;;;;;;1.97;1.30;;;32.70;1.00;;;;;;5096541;28;20477;-72
2022/08/26 13:01:18;;;;;;;4.90;1.27;;;33.20;1.00;;;;;;5094319;28;20923;-72
2022/08/26 13:03:46;;;;;;;2.67;1.40;;;33.40;1.00;;;;;;5104522;28;20476;-72
2022/08/26 13:06:26;;;;;;;3.90;1.60;;;33.60;1.00;;;;;;5115820;28;20534;-73
2022/08/26 13:08:56;;;;;;;3.20;2.60;;;33.50;1.00;;;;;;5105838;28;20534;-73
2022/08/26 13:11:25;;;;;;;1.80;1.70;;;33.80;1.00;;;;;;5094015;28;20484;-71
2022/08/26 13:13:56;;;;;;;2.67;1.53;;;33.70;1.00;;;;;;5097123;28;20469;-72
2022/08/26 13:16:24;;;;;;;2.27;1.30;;;33.70;1.00;;;;;;5095449;28;20445;-72
2022/08/26 13:18:54;;;;;;;3.07;1.30;;;33.30;1.00;;;;;;5093688;28;20541;-72